sensor_id;sensor_type;location;lat;lon;timestamp;P1;durP1;ratioP1;P2;durP2;ratioP2
24425;SDS011;12611;44.446;26.000;2023-02-18T00:01:38;18.13;;;9.53;;
24425;SDS011;12611;44.446;26.000;2023-02-18T00:04:08;23.03;;;10.17;;
24425;SDS011;12611;44.446;26.000;2023-02-18T00:06:36;18.13;;;9.17;;
24425;SDS011;12611;44.446;26.000;2023-02-18T00:09:05;19.40;;;9.63;;
24425;SDS011;12611;44.446;26.000;2023-02-18T00:11:35;16.97;;;8.83;;
24425;SDS011;12611;44.446;26.000;2023-02-18T00:14:05;17.10;;;9.33;;
24425;SDS011;12611;44.446;26.000;2023-02-18T00:16:37;18.27;;;8.80;;
24425;SDS011;12611;44.446;26.000;2023-02-18T00:19:06;17.23;;;8.83;;
24425;SDS011;12611;44.446;26.000;2023-02-18T00:21:38;18.03;;;9.40;;
24425;SDS011;12611;44.446;26.000;2023-02-18T00:24:06;18.17;;;10.57;;
24425;SDS011;12611;44.446;26.000;2023-02-18T00:26:35;17.27;;;9.47;;
24425;SDS011;12611;44.446;26.000;2023-02-18T00:29:04;17.23;;;9.27;;
24425;SDS011;12611;44.446;26.000;2023-02-18T00:31:32;18.03;;;9.27;;
24425;SDS011;12611;44.446;26.000;2023-02-18T00:34:03;16.87;;;9.03;;
24425;SDS011;12611;44.446;26.000;2023-02-18T00:36:33;22.00;;;9.17;;
24425;SDS011;12611;44.446;26.000;2023-02-18T00:39:03;19.87;;;9.63;;
24425;SDS011;12611;44.446;26.000;2023-02-18T00:41:33;18.93;;;9.53;;
24425;SDS011;12611;44.446;26.000;2023-02-18T00:44:02;21.87;;;10.43;;
24425;SDS011;12611;44.446;26.000;2023-02-18T00:46:31;17.93;;;9.20;;
24425;SDS011;12611;44.446;26.000;2023-02-18T00:49:00;24.93;;;10.83;;
24425;SDS011;12611;44.446;26.000;2023-02-18T00:51:28;19.87;;;9.93;;
24425;SDS011;12611;44.446;26.000;2023-02-18T00:53:58;22.73;;;10.90;;
24425;SDS011;12611;44.446;26.000;2023-02-18T00:56:27;22.20;;;10.27;;
24425;SDS011;12611;44.446;26.000;2023-02-18T00:58:55;23.27;;;10.67;;
24425;SDS011;12611;44.446;26.000;2023-02-18T01:01:23;22.03;;;11.03;;
24425;SDS011;12611;44.446;26.000;2023-02-18T01:03:53;23.53;;;11.13;;
24425;SDS011;12611;44.446;26.000;2023-02-18T01:06:21;20.20;;;9.90;;
24425;SDS011;12611;44.446;26.000;2023-02-18T01:08:49;20.23;;;10.20;;
24425;SDS011;12611;44.446;26.000;2023-02-18T01:11:19;22.10;;;10.40;;
24425;SDS011;12611;44.446;26.000;2023-02-18T01:13:48;25.80;;;9.30;;
24425;SDS011;12611;44.446;26.000;2023-02-18T01:16:16;16.23;;;8.77;;
24425;SDS011;12611;44.446;26.000;2023-02-18T01:18:44;17.83;;;9.90;;
24425;SDS011;12611;44.446;26.000;2023-02-18T01:21:13;20.17;;;9.80;;
24425;SDS011;12611;44.446;26.000;2023-02-18T01:23:42;24.27;;;11.13;;
24425;SDS011;12611;44.446;26.000;2023-02-18T01:26:10;19.57;;;10.43;;
24425;SDS011;12611;44.446;26.000;2023-02-18T01:28:40;20.03;;;9.77;;
24425;SDS011;12611;44.446;26.000;2023-02-18T01:31:09;19.97;;;10.43;;
24425;SDS011;12611;44.446;26.000;2023-02-18T01:33:42;18.70;;;9.60;;
24425;SDS011;12611;44.446;26.000;2023-02-18T01:36:11;24.30;;;11.23;;
24425;SDS011;12611;44.446;26.000;2023-02-18T01:38:39;20.47;;;10.53;;
24425;SDS011;12611;44.446;26.000;2023-02-18T01:41:08;21.00;;;9.70;;
24425;SDS011;12611;44.446;26.000;2023-02-18T01:43:37;19.03;;;9.97;;
24425;SDS011;12611;44.446;26.000;2023-02-18T01:46:10;19.33;;;10.27;;
24425;SDS011;12611;44.446;26.000;2023-02-18T01:48:45;20.87;;;10.60;;
24425;SDS011;12611;44.446;26.000;2023-02-18T01:51:18;19.97;;;10.10;;
24425;SDS011;12611;44.446;26.000;2023-02-18T01:53:50;18.40;;;10.50;;
24425;SDS011;12611;44.446;26.000;2023-02-18T01:56:23;20.90;;;11.20;;
24425;SDS011;12611;44.446;26.000;2023-02-18T01:58:56;22.47;;;10.43;;
24425;SDS011;12611;44.446;26.000;2023-02-18T02:01:29;22.13;;;11.20;;
24425;SDS011;12611;44.446;26.000;2023-02-18T02:03:58;20.97;;;10.80;;
24425;SDS011;12611;44.446;26.000;2023-02-18T02:06:27;26.87;;;11.73;;
24425;SDS011;12611;44.446;26.000;2023-02-18T02:08:56;20.17;;;10.37;;
24425;SDS011;12611;44.446;26.000;2023-02-18T02:14:34;24.37;;;12.10;;
24425;SDS011;12611;44.446;26.000;2023-02-18T02:17:20;21.30;;;10.67;;
24425;SDS011;12611;44.446;26.000;2023-02-18T02:23:15;20.67;;;11.13;;
24425;SDS011;12611;44.446;26.000;2023-02-18T02:26:16;20.03;;;10.27;;
24425;SDS011;12611;44.446;26.000;2023-02-18T02:32:25;19.30;;;11.30;;
24425;SDS011;12611;44.446;26.000;2023-02-18T02:35:23;21.77;;;11.67;;
24425;SDS011;12611;44.446;26.000;2023-02-18T02:37:54;24.03;;;12.23;;
24425;SDS011;12611;44.446;26.000;2023-02-18T02:40:29;22.50;;;11.63;;
24425;SDS011;12611;44.446;26.000;2023-02-18T02:43:05;24.27;;;12.23;;
24425;SDS011;12611;44.446;26.000;2023-02-18T02:45:43;23.70;;;11.87;;
24425;SDS011;12611;44.446;26.000;2023-02-18T02:48:26;23.07;;;11.77;;
24425;SDS011;12611;44.446;26.000;2023-02-18T02:51:05;22.37;;;12.17;;
24425;SDS011;12611;44.446;26.000;2023-02-18T02:53:39;27.27;;;12.10;;
24425;SDS011;12611;44.446;26.000;2023-02-18T02:56:09;23.50;;;12.27;;
24425;SDS011;12611;44.446;26.000;2023-02-18T02:58:41;23.93;;;13.33;;
24425;SDS011;12611;44.446;26.000;2023-02-18T03:01:19;28.97;;;13.67;;
24425;SDS011;12611;44.446;26.000;2023-02-18T03:04:11;27.63;;;14.80;;
24425;SDS011;12611;44.446;26.000;2023-02-18T03:06:58;29.20;;;14.03;;
24425;SDS011;12611;44.446;26.000;2023-02-18T03:09:39;30.47;;;14.27;;
24425;SDS011;12611;44.446;26.000;2023-02-18T03:12:22;34.23;;;15.10;;
24425;SDS011;12611;44.446;26.000;2023-02-18T03:14:57;30.57;;;15.57;;
24425;SDS011;12611;44.446;26.000;2023-02-18T03:17:32;28.23;;;14.50;;
24425;SDS011;12611;44.446;26.000;2023-02-18T03:20:06;30.77;;;14.53;;
24425;SDS011;12611;44.446;26.000;2023-02-18T03:22:38;32.47;;;17.07;;
24425;SDS011;12611;44.446;26.000;2023-02-18T03:25:11;34.07;;;16.83;;
24425;SDS011;12611;44.446;26.000;2023-02-18T03:27:42;33.57;;;17.27;;
24425;SDS011;12611;44.446;26.000;2023-02-18T03:30:15;32.30;;;16.97;;
24425;SDS011;12611;44.446;26.000;2023-02-18T03:32:48;33.83;;;16.40;;
24425;SDS011;12611;44.446;26.000;2023-02-18T03:35:21;32.10;;;16.73;;
24425;SDS011;12611;44.446;26.000;2023-02-18T03:37:53;32.10;;;16.73;;
24425;SDS011;12611;44.446;26.000;2023-02-18T03:40:26;33.23;;;16.83;;
24425;SDS011;12611;44.446;26.000;2023-02-18T03:42:55;34.13;;;15.37;;
24425;SDS011;12611;44.446;26.000;2023-02-18T03:45:24;32.37;;;16.73;;
24425;SDS011;12611;44.446;26.000;2023-02-18T03:47:52;33.63;;;18.10;;
24425;SDS011;12611;44.446;26.000;2023-02-18T03:50:21;28.97;;;16.53;;
24425;SDS011;12611;44.446;26.000;2023-02-18T03:52:49;32.60;;;16.47;;
24425;SDS011;12611;44.446;26.000;2023-02-18T03:55:19;29.67;;;15.77;;
24425;SDS011;12611;44.446;26.000;2023-02-18T03:57:47;31.10;;;15.70;;
24425;SDS011;12611;44.446;26.000;2023-02-18T04:00:16;29.53;;;15.83;;
24425;SDS011;12611;44.446;26.000;2023-02-18T04:02:45;30.57;;;15.63;;
24425;SDS011;12611;44.446;26.000;2023-02-18T04:05:14;28.07;;;15.60;;
24425;SDS011;12611;44.446;26.000;2023-02-18T04:07:42;33.70;;;15.47;;
24425;SDS011;12611;44.446;26.000;2023-02-18T04:10:11;28.33;;;15.30;;
24425;SDS011;12611;44.446;26.000;2023-02-18T04:12:40;28.90;;;15.97;;
24425;SDS011;12611;44.446;26.000;2023-02-18T04:15:09;28.20;;;14.73;;
24425;SDS011;12611;44.446;26.000;2023-02-18T04:17:39;26.87;;;14.97;;
24425;SDS011;12611;44.446;26.000;2023-02-18T04:20:07;25.70;;;14.37;;
24425;SDS011;12611;44.446;26.000;2023-02-18T04:22:36;29.17;;;15.10;;
24425;SDS011;12611;44.446;26.000;2023-02-18T04:25:05;26.33;;;14.77;;
24425;SDS011;12611;44.446;26.000;2023-02-18T04:27:34;27.90;;;14.83;;
24425;SDS011;12611;44.446;26.000;2023-02-18T04:30:04;25.87;;;14.10;;
24425;SDS011;12611;44.446;26.000;2023-02-18T04:32:34;30.87;;;14.07;;
24425;SDS011;12611;44.446;26.000;2023-02-18T04:35:02;24.97;;;14.37;;
24425;SDS011;12611;44.446;26.000;2023-02-18T04:37:31;26.60;;;13.97;;
24425;SDS011;12611;44.446;26.000;2023-02-18T04:40:00;26.47;;;14.40;;
24425;SDS011;12611;44.446;26.000;2023-02-18T04:42:28;29.07;;;14.47;;
24425;SDS011;12611;44.446;26.000;2023-02-18T04:44:57;25.77;;;14.40;;
24425;SDS011;12611;44.446;26.000;2023-02-18T04:47:27;30.17;;;15.88;;
24425;SDS011;12611;44.446;26.000;2023-02-18T04:49:55;25.27;;;13.47;;
24425;SDS011;12611;44.446;26.000;2023-02-18T04:52:23;26.17;;;14.23;;
24425;SDS011;12611;44.446;26.000;2023-02-18T04:54:52;25.30;;;13.63;;
24425;SDS011;12611;44.446;26.000;2023-02-18T04:57:20;28.93;;;13.77;;
24425;SDS011;12611;44.446;26.000;2023-02-18T04:59:48;25.83;;;13.03;;
24425;SDS011;12611;44.446;26.000;2023-02-18T05:02:17;23.97;;;12.23;;
24425;SDS011;12611;44.446;26.000;2023-02-18T05:04:47;23.07;;;12.97;;
24425;SDS011;12611;44.446;26.000;2023-02-18T05:07:15;25.03;;;12.47;;
24425;SDS011;12611;44.446;26.000;2023-02-18T05:09:43;23.30;;;12.43;;
24425;SDS011;12611;44.446;26.000;2023-02-18T05:12:12;21.83;;;11.57;;
24425;SDS011;12611;44.446;26.000;2023-02-18T05:14:40;21.63;;;11.90;;
24425;SDS011;12611;44.446;26.000;2023-02-18T05:17:09;24.77;;;12.73;;
24425;SDS011;12611;44.446;26.000;2023-02-18T05:19:37;23.57;;;11.93;;
24425;SDS011;12611;44.446;26.000;2023-02-18T05:22:07;24.17;;;11.77;;
24425;SDS011;12611;44.446;26.000;2023-02-18T05:24:35;26.17;;;12.10;;
24425;SDS011;12611;44.446;26.000;2023-02-18T05:27:03;24.20;;;12.37;;
24425;SDS011;12611;44.446;26.000;2023-02-18T05:29:32;22.17;;;12.00;;
24425;SDS011;12611;44.446;26.000;2023-02-18T05:32:00;25.93;;;11.90;;
24425;SDS011;12611;44.446;26.000;2023-02-18T05:34:28;27.47;;;12.60;;
24425;SDS011;12611;44.446;26.000;2023-02-18T05:36:57;22.27;;;11.83;;
24425;SDS011;12611;44.446;26.000;2023-02-18T05:39:26;23.17;;;11.73;;
24425;SDS011;12611;44.446;26.000;2023-02-18T05:41:55;25.60;;;12.37;;
24425;SDS011;12611;44.446;26.000;2023-02-18T05:44:23;19.63;;;10.93;;
24425;SDS011;12611;44.446;26.000;2023-02-18T05:46:58;24.40;;;10.93;;
24425;SDS011;12611;44.446;26.000;2023-02-18T05:49:28;19.40;;;11.07;;
24425;SDS011;12611;44.446;26.000;2023-02-18T05:51:58;21.73;;;11.30;;
24425;SDS011;12611;44.446;26.000;2023-02-18T05:54:27;24.80;;;11.37;;
24425;SDS011;12611;44.446;26.000;2023-02-18T05:56:56;22.17;;;11.13;;
24425;SDS011;12611;44.446;26.000;2023-02-18T05:59:24;21.53;;;11.63;;
24425;SDS011;12611;44.446;26.000;2023-02-18T06:01:53;19.00;;;11.57;;
24425;SDS011;12611;44.446;26.000;2023-02-18T06:04:21;19.40;;;10.77;;
24425;SDS011;12611;44.446;26.000;2023-02-18T06:06:50;22.87;;;11.63;;
24425;SDS011;12611;44.446;26.000;2023-02-18T06:09:20;28.77;;;14.80;;
24425;SDS011;12611;44.446;26.000;2023-02-18T06:11:50;50.13;;;27.00;;
24425;SDS011;12611;44.446;26.000;2023-02-18T06:14:18;20.73;;;11.77;;
24425;SDS011;12611;44.446;26.000;2023-02-18T06:16:47;22.40;;;11.47;;
24425;SDS011;12611;44.446;26.000;2023-02-18T06:19:15;21.47;;;10.77;;
24425;SDS011;12611;44.446;26.000;2023-02-18T06:21:43;19.53;;;10.50;;
24425;SDS011;12611;44.446;26.000;2023-02-18T06:24:12;21.30;;;11.03;;
24425;SDS011;12611;44.446;26.000;2023-02-18T06:26:40;19.13;;;10.23;;
24425;SDS011;12611;44.446;26.000;2023-02-18T06:29:10;18.73;;;10.40;;
24425;SDS011;12611;44.446;26.000;2023-02-18T06:31:38;23.30;;;11.33;;
24425;SDS011;12611;44.446;26.000;2023-02-18T06:34:07;19.83;;;9.70;;
24425;SDS011;12611;44.446;26.000;2023-02-18T06:36:35;20.87;;;10.40;;
24425;SDS011;12611;44.446;26.000;2023-02-18T06:39:04;21.07;;;9.83;;
24425;SDS011;12611;44.446;26.000;2023-02-18T06:41:33;19.57;;;10.43;;
24425;SDS011;12611;44.446;26.000;2023-02-18T06:44:01;17.83;;;9.50;;
24425;SDS011;12611;44.446;26.000;2023-02-18T06:46:31;17.93;;;9.50;;
24425;SDS011;12611;44.446;26.000;2023-02-18T06:49:00;19.53;;;9.70;;
24425;SDS011;12611;44.446;26.000;2023-02-18T06:51:28;16.70;;;9.43;;
24425;SDS011;12611;44.446;26.000;2023-02-18T06:53:56;20.87;;;9.87;;
24425;SDS011;12611;44.446;26.000;2023-02-18T06:56:25;20.33;;;11.35;;
24425;SDS011;12611;44.446;26.000;2023-02-18T06:58:56;17.43;;;10.20;;
24425;SDS011;12611;44.446;26.000;2023-02-18T07:01:24;20.33;;;10.30;;
24425;SDS011;12611;44.446;26.000;2023-02-18T07:03:54;21.00;;;9.87;;
24425;SDS011;12611;44.446;26.000;2023-02-18T07:06:23;20.57;;;10.43;;
24425;SDS011;12611;44.446;26.000;2023-02-18T07:08:51;15.90;;;9.13;;
24425;SDS011;12611;44.446;26.000;2023-02-18T07:11:19;19.47;;;9.83;;
24425;SDS011;12611;44.446;26.000;2023-02-18T07:13:48;18.90;;;10.17;;
24425;SDS011;12611;44.446;26.000;2023-02-18T07:16:16;16.90;;;9.30;;
24425;SDS011;12611;44.446;26.000;2023-02-18T07:18:45;18.80;;;9.47;;
24425;SDS011;12611;44.446;26.000;2023-02-18T07:21:14;19.70;;;9.63;;
24425;SDS011;12611;44.446;26.000;2023-02-18T07:23:43;20.00;;;9.30;;
24425;SDS011;12611;44.446;26.000;2023-02-18T07:26:12;20.93;;;9.83;;
24425;SDS011;12611;44.446;26.000;2023-02-18T07:28:41;17.07;;;9.07;;
24425;SDS011;12611;44.446;26.000;2023-02-18T07:31:09;19.77;;;10.70;;
24425;SDS011;12611;44.446;26.000;2023-02-18T07:33:38;20.20;;;10.43;;
24425;SDS011;12611;44.446;26.000;2023-02-18T07:36:06;19.87;;;9.73;;
24425;SDS011;12611;44.446;26.000;2023-02-18T07:38:37;19.70;;;9.83;;
24425;SDS011;12611;44.446;26.000;2023-02-18T07:41:11;17.47;;;8.70;;
24425;SDS011;12611;44.446;26.000;2023-02-18T07:43:43;17.50;;;9.07;;
24425;SDS011;12611;44.446;26.000;2023-02-18T07:46:12;21.23;;;9.80;;
24425;SDS011;12611;44.446;26.000;2023-02-18T07:48:41;20.17;;;9.50;;
24425;SDS011;12611;44.446;26.000;2023-02-18T07:51:09;22.60;;;9.90;;
24425;SDS011;12611;44.446;26.000;2023-02-18T07:53:40;20.57;;;9.00;;
24425;SDS011;12611;44.446;26.000;2023-02-18T07:56:11;18.73;;;9.43;;
24425;SDS011;12611;44.446;26.000;2023-02-18T07:58:39;20.63;;;9.73;;
24425;SDS011;12611;44.446;26.000;2023-02-18T08:01:09;23.57;;;9.93;;
24425;SDS011;12611;44.446;26.000;2023-02-18T08:03:40;17.70;;;9.63;;
24425;SDS011;12611;44.446;26.000;2023-02-18T08:06:12;20.35;;;10.38;;
24425;SDS011;12611;44.446;26.000;2023-02-18T08:08:48;18.27;;;8.87;;
24425;SDS011;12611;44.446;26.000;2023-02-18T08:11:16;26.90;;;10.67;;
24425;SDS011;12611;44.446;26.000;2023-02-18T08:13:45;21.70;;;8.90;;
24425;SDS011;12611;44.446;26.000;2023-02-18T08:16:14;22.23;;;9.93;;
24425;SDS011;12611;44.446;26.000;2023-02-18T08:18:43;26.20;;;9.53;;
24425;SDS011;12611;44.446;26.000;2023-02-18T08:21:13;15.70;;;8.33;;
24425;SDS011;12611;44.446;26.000;2023-02-18T08:23:41;16.13;;;8.17;;
24425;SDS011;12611;44.446;26.000;2023-02-18T08:26:12;17.13;;;8.53;;
24425;SDS011;12611;44.446;26.000;2023-02-18T08:28:40;17.37;;;8.53;;
24425;SDS011;12611;44.446;26.000;2023-02-18T08:31:13;16.87;;;8.23;;
24425;SDS011;12611;44.446;26.000;2023-02-18T08:33:44;25.10;;;9.10;;
24425;SDS011;12611;44.446;26.000;2023-02-18T08:36:12;14.93;;;7.90;;
24425;SDS011;12611;44.446;26.000;2023-02-18T08:38:41;18.87;;;8.47;;
24425;SDS011;12611;44.446;26.000;2023-02-18T08:41:09;19.37;;;8.17;;
24425;SDS011;12611;44.446;26.000;2023-02-18T08:43:40;17.63;;;7.93;;
24425;SDS011;12611;44.446;26.000;2023-02-18T08:46:09;16.37;;;8.10;;
24425;SDS011;12611;44.446;26.000;2023-02-18T08:48:44;13.23;;;7.37;;
24425;SDS011;12611;44.446;26.000;2023-02-18T08:51:14;14.23;;;7.40;;
24425;SDS011;12611;44.446;26.000;2023-02-18T08:53:44;15.47;;;7.93;;
24425;SDS011;12611;44.446;26.000;2023-02-18T08:56:14;23.10;;;8.00;;
24425;SDS011;12611;44.446;26.000;2023-02-18T08:58:43;18.70;;;8.03;;
24425;SDS011;12611;44.446;26.000;2023-02-18T09:01:12;15.27;;;8.10;;
24425;SDS011;12611;44.446;26.000;2023-02-18T09:03:43;17.90;;;8.40;;
24425;SDS011;12611;44.446;26.000;2023-02-18T09:06:12;18.40;;;8.00;;
24425;SDS011;12611;44.446;26.000;2023-02-18T09:08:40;15.27;;;7.90;;
24425;SDS011;12611;44.446;26.000;2023-02-18T09:11:09;18.30;;;8.30;;
24425;SDS011;12611;44.446;26.000;2023-02-18T09:13:39;13.03;;;7.47;;
24425;SDS011;12611;44.446;26.000;2023-02-18T09:16:09;13.83;;;7.73;;
24425;SDS011;12611;44.446;26.000;2023-02-18T09:18:39;18.40;;;7.87;;
24425;SDS011;12611;44.446;26.000;2023-02-18T09:21:08;20.07;;;8.70;;
24425;SDS011;12611;44.446;26.000;2023-02-18T09:24:00;21.70;;;9.27;;
24425;SDS011;12611;44.446;26.000;2023-02-18T09:26:28;21.57;;;8.50;;
24425;SDS011;12611;44.446;26.000;2023-02-18T09:28:58;16.43;;;8.20;;
24425;SDS011;12611;44.446;26.000;2023-02-18T09:31:27;13.93;;;7.63;;
24425;SDS011;12611;44.446;26.000;2023-02-18T09:33:56;20.47;;;7.90;;
24425;SDS011;12611;44.446;26.000;2023-02-18T09:36:26;17.93;;;8.63;;
24425;SDS011;12611;44.446;26.000;2023-02-18T09:38:55;20.07;;;8.20;;
24425;SDS011;12611;44.446;26.000;2023-02-18T09:41:29;18.13;;;8.03;;
24425;SDS011;12611;44.446;26.000;2023-02-18T09:44:05;17.07;;;8.13;;
24425;SDS011;12611;44.446;26.000;2023-02-18T09:46:40;13.40;;;7.43;;
24425;SDS011;12611;44.446;26.000;2023-02-18T09:49:13;15.37;;;8.03;;
24425;SDS011;12611;44.446;26.000;2023-02-18T09:51:45;23.77;;;8.27;;
24425;SDS011;12611;44.446;26.000;2023-02-18T09:54:14;18.83;;;8.53;;
24425;SDS011;12611;44.446;26.000;2023-02-18T09:56:45;19.20;;;8.40;;
24425;SDS011;12611;44.446;26.000;2023-02-18T09:59:17;17.90;;;7.57;;
24425;SDS011;12611;44.446;26.000;2023-02-18T10:01:48;18.73;;;8.80;;
24425;SDS011;12611;44.446;26.000;2023-02-18T10:04:24;20.03;;;8.37;;
24425;SDS011;12611;44.446;26.000;2023-02-18T10:06:55;18.53;;;8.93;;
24425;SDS011;12611;44.446;26.000;2023-02-18T10:09:27;18.27;;;8.60;;
24425;SDS011;12611;44.446;26.000;2023-02-18T10:12:00;17.77;;;8.13;;
24425;SDS011;12611;44.446;26.000;2023-02-18T10:14:38;17.17;;;7.90;;
24425;SDS011;12611;44.446;26.000;2023-02-18T10:17:08;13.13;;;7.50;;
24425;SDS011;12611;44.446;26.000;2023-02-18T10:19:40;16.60;;;8.03;;
24425;SDS011;12611;44.446;26.000;2023-02-18T10:22:11;16.33;;;7.70;;
24425;SDS011;12611;44.446;26.000;2023-02-18T10:24:41;13.17;;;7.63;;
24425;SDS011;12611;44.446;26.000;2023-02-18T10:27:14;13.90;;;7.33;;
24425;SDS011;12611;44.446;26.000;2023-02-18T10:29:49;14.00;;;7.70;;
24425;SDS011;12611;44.446;26.000;2023-02-18T10:32:18;15.67;;;8.17;;
24425;SDS011;12611;44.446;26.000;2023-02-18T10:34:50;13.47;;;7.70;;
24425;SDS011;12611;44.446;26.000;2023-02-18T10:40:22;15.50;;;8.03;;
24425;SDS011;12611;44.446;26.000;2023-02-18T10:43:02;13.67;;;7.20;;
24425;SDS011;12611;44.446;26.000;2023-02-18T10:45:40;17.15;;;8.30;;
24425;SDS011;12611;44.446;26.000;2023-02-18T10:48:27;15.83;;;8.17;;
24425;SDS011;12611;44.446;26.000;2023-02-18T10:51:20;15.23;;;7.60;;
24425;SDS011;12611;44.446;26.000;2023-02-18T10:53:51;15.30;;;7.73;;
24425;SDS011;12611;44.446;26.000;2023-02-18T10:56:34;35.37;;;11.13;;
24425;SDS011;12611;44.446;26.000;2023-02-18T10:59:10;17.60;;;8.07;;
24425;SDS011;12611;44.446;26.000;2023-02-18T11:01:41;17.17;;;8.33;;
24425;SDS011;12611;44.446;26.000;2023-02-18T11:04:12;15.70;;;8.60;;
24425;SDS011;12611;44.446;26.000;2023-02-18T11:06:44;26.33;;;11.47;;
24425;SDS011;12611;44.446;26.000;2023-02-18T11:12:06;26.37;;;10.07;;
24425;SDS011;12611;44.446;26.000;2023-02-18T11:14:42;15.80;;;8.00;;
24425;SDS011;12611;44.446;26.000;2023-02-18T11:17:16;18.73;;;8.30;;
24425;SDS011;12611;44.446;26.000;2023-02-18T11:19:55;13.20;;;6.73;;
24425;SDS011;12611;44.446;26.000;2023-02-18T11:22:25;16.70;;;7.80;;
24425;SDS011;12611;44.446;26.000;2023-02-18T11:25:03;14.67;;;7.80;;
24425;SDS011;12611;44.446;26.000;2023-02-18T11:27:48;17.37;;;8.70;;
24425;SDS011;12611;44.446;26.000;2023-02-18T11:30:19;23.57;;;10.50;;
24425;SDS011;12611;44.446;26.000;2023-02-18T11:32:52;20.83;;;10.87;;
24425;SDS011;12611;44.446;26.000;2023-02-18T11:35:26;17.83;;;8.60;;
24425;SDS011;12611;44.446;26.000;2023-02-18T11:37:56;13.97;;;7.57;;
24425;SDS011;12611;44.446;26.000;2023-02-18T11:40:27;16.23;;;7.77;;
24425;SDS011;12611;44.446;26.000;2023-02-18T11:43:04;13.67;;;7.10;;
24425;SDS011;12611;44.446;26.000;2023-02-18T11:45:36;16.80;;;7.43;;
24425;SDS011;12611;44.446;26.000;2023-02-18T11:48:08;14.00;;;7.17;;
24425;SDS011;12611;44.446;26.000;2023-02-18T11:50:43;15.27;;;8.18;;
24425;SDS011;12611;44.446;26.000;2023-02-18T11:53:26;15.63;;;7.93;;
24425;SDS011;12611;44.446;26.000;2023-02-18T11:55:57;12.13;;;7.30;;
24425;SDS011;12611;44.446;26.000;2023-02-18T11:58:30;13.20;;;6.90;;
24425;SDS011;12611;44.446;26.000;2023-02-18T12:01:04;15.43;;;7.67;;
24425;SDS011;12611;44.446;26.000;2023-02-18T12:03:41;12.97;;;7.27;;
24425;SDS011;12611;44.446;26.000;2023-02-18T12:06:16;15.83;;;7.77;;
24425;SDS011;12611;44.446;26.000;2023-02-18T12:08:48;14.07;;;7.30;;
24425;SDS011;12611;44.446;26.000;2023-02-18T12:11:21;14.07;;;7.43;;
24425;SDS011;12611;44.446;26.000;2023-02-18T12:13:56;14.20;;;7.17;;
24425;SDS011;12611;44.446;26.000;2023-02-18T12:16:28;14.77;;;7.37;;
24425;SDS011;12611;44.446;26.000;2023-02-18T12:19:15;15.37;;;8.07;;
24425;SDS011;12611;44.446;26.000;2023-02-18T12:21:56;16.27;;;6.50;;
24425;SDS011;12611;44.446;26.000;2023-02-18T12:24:33;14.67;;;6.47;;
24425;SDS011;12611;44.446;26.000;2023-02-18T12:27:11;19.10;;;6.53;;
24425;SDS011;12611;44.446;26.000;2023-02-18T12:29:49;14.63;;;7.07;;
24425;SDS011;12611;44.446;26.000;2023-02-18T12:33:09;17.50;;;6.90;;
24425;SDS011;12611;44.446;26.000;2023-02-18T12:35:48;12.13;;;6.30;;
24425;SDS011;12611;44.446;26.000;2023-02-18T12:38:35;12.87;;;6.77;;
24425;SDS011;12611;44.446;26.000;2023-02-18T12:41:58;9.40;;;5.73;;
24425;SDS011;12611;44.446;26.000;2023-02-18T12:44:38;13.77;;;6.30;;
24425;SDS011;12611;44.446;26.000;2023-02-18T12:47:23;13.20;;;5.83;;
24425;SDS011;12611;44.446;26.000;2023-02-18T12:50:26;12.40;;;6.57;;
24425;SDS011;12611;44.446;26.000;2023-02-18T12:53:16;16.40;;;6.70;;
24425;SDS011;12611;44.446;26.000;2023-02-18T12:56:02;17.97;;;5.93;;
24425;SDS011;12611;44.446;26.000;2023-02-18T12:58:48;10.77;;;5.67;;
24425;SDS011;12611;44.446;26.000;2023-02-18T13:01:25;14.77;;;6.03;;
24425;SDS011;12611;44.446;26.000;2023-02-18T13:04:11;13.33;;;6.50;;
24425;SDS011;12611;44.446;26.000;2023-02-18T13:10:20;14.73;;;5.37;;
24425;SDS011;12611;44.446;26.000;2023-02-18T13:13:15;13.80;;;6.10;;
24425;SDS011;12611;44.446;26.000;2023-02-18T13:15:47;14.67;;;6.30;;
24425;SDS011;12611;44.446;26.000;2023-02-18T13:18:21;12.00;;;6.03;;
24425;SDS011;12611;44.446;26.000;2023-02-18T13:20:55;12.40;;;6.17;;
24425;SDS011;12611;44.446;26.000;2023-02-18T13:23:31;10.90;;;5.70;;
24425;SDS011;12611;44.446;26.000;2023-02-18T13:26:03;15.83;;;5.70;;
24425;SDS011;12611;44.446;26.000;2023-02-18T13:28:37;15.00;;;5.90;;
24425;SDS011;12611;44.446;26.000;2023-02-18T13:31:19;15.50;;;5.40;;
24425;SDS011;12611;44.446;26.000;2023-02-18T13:33:55;8.68;;;4.50;;
24425;SDS011;12611;44.446;26.000;2023-02-18T13:36:32;12.15;;;5.00;;
24425;SDS011;12611;44.446;26.000;2023-02-18T13:39:11;11.13;;;5.85;;
24425;SDS011;12611;44.446;26.000;2023-02-18T13:41:47;15.45;;;5.63;;
24425;SDS011;12611;44.446;26.000;2023-02-18T13:44:38;11.68;;;4.47;;
24425;SDS011;12611;44.446;26.000;2023-02-18T13:47:07;8.98;;;4.55;;
24425;SDS011;12611;44.446;26.000;2023-02-18T13:49:37;13.20;;;5.53;;
24425;SDS011;12611;44.446;26.000;2023-02-18T13:52:14;9.27;;;4.18;;
24425;SDS011;12611;44.446;26.000;2023-02-18T13:54:46;10.35;;;4.57;;
24425;SDS011;12611;44.446;26.000;2023-02-18T13:57:19;13.32;;;4.80;;
24425;SDS011;12611;44.446;26.000;2023-02-18T13:59:55;9.13;;;3.83;;
24425;SDS011;12611;44.446;26.000;2023-02-18T14:02:29;8.00;;;4.40;;
24425;SDS011;12611;44.446;26.000;2023-02-18T14:05:19;8.53;;;4.00;;
24425;SDS011;12611;44.446;26.000;2023-02-18T14:07:50;9.25;;;4.43;;
24425;SDS011;12611;44.446;26.000;2023-02-18T14:10:26;9.38;;;4.45;;
24425;SDS011;12611;44.446;26.000;2023-02-18T14:16:05;8.93;;;4.32;;
24425;SDS011;12611;44.446;26.000;2023-02-18T14:18:54;7.68;;;4.10;;
24425;SDS011;12611;44.446;26.000;2023-02-18T14:21:36;7.20;;;3.63;;
24425;SDS011;12611;44.446;26.000;2023-02-18T14:24:06;6.90;;;3.63;;
24425;SDS011;12611;44.446;26.000;2023-02-18T14:26:39;7.22;;;3.97;;
24425;SDS011;12611;44.446;26.000;2023-02-18T14:29:18;6.40;;;3.45;;
24425;SDS011;12611;44.446;26.000;2023-02-18T14:31:55;12.82;;;3.55;;
24425;SDS011;12611;44.446;26.000;2023-02-18T14:34:40;7.72;;;3.25;;
24425;SDS011;12611;44.446;26.000;2023-02-18T14:40:43;7.43;;;3.65;;
24425;SDS011;12611;44.446;26.000;2023-02-18T14:43:38;8.45;;;3.22;;
24425;SDS011;12611;44.446;26.000;2023-02-18T14:46:34;8.90;;;4.20;;
24425;SDS011;12611;44.446;26.000;2023-02-18T14:49:18;8.48;;;3.50;;
24425;SDS011;12611;44.446;26.000;2023-02-18T14:51:58;9.00;;;3.83;;
24425;SDS011;12611;44.446;26.000;2023-02-18T14:54:27;8.15;;;4.00;;
24425;SDS011;12611;44.446;26.000;2023-02-18T14:56:58;9.27;;;4.57;;
24425;SDS011;12611;44.446;26.000;2023-02-18T14:59:33;10.38;;;4.20;;
24425;SDS011;12611;44.446;26.000;2023-02-18T15:02:09;7.10;;;4.18;;
24425;SDS011;12611;44.446;26.000;2023-02-18T15:04:46;13.80;;;5.30;;
24425;SDS011;12611;44.446;26.000;2023-02-18T15:07:17;12.07;;;6.03;;
24425;SDS011;12611;44.446;26.000;2023-02-18T15:09:48;11.48;;;6.10;;
24425;SDS011;12611;44.446;26.000;2023-02-18T15:12:19;12.20;;;5.18;;
24425;SDS011;12611;44.446;26.000;2023-02-18T15:14:51;8.85;;;5.10;;
24425;SDS011;12611;44.446;26.000;2023-02-18T15:17:23;11.25;;;5.80;;